Terminal Aerodrome Forecast
Issued by NWS Shreveport, LA

Home | Current Version | Previous Version | Text Only | Print | Product List | Glossary On
Versions: 1 2 3 4 5 6 7 8 9 10 11 12 13 14 15 16 17 18 19
000
FTUS44 KSHV 230500 RRA
TAFTYR
TAF
KTYR 230549Z 2306/2406 14007KT P6SM -RA SCT045 OVC100
      TEMPO 2307/2309 4SM -RA BR BKN015 OVC040
     FM230900 15007KT 3SM -RA BR OVC008
     FM231000 17009KT 2SM -DZ BR OVC006
      TEMPO 2311/2313 1SM BR OVC004
     FM231600 21011KT P6SM BKN015
     FM231800 22016G23KT P6SM SCT035
     FM240000 26020G21KT P6SM SKC=

USA.gov is the U.S. government's official web portal to all federal, state and local government web resources and services.